Terminal Aerodrome Forecast
Issued by NWS King Salmon, AK

Home | Current Version | Previous Version | Text Only | Print | Product List | Glossary On
Versions: 1 2 3 4 5 6 7 8 9 10 11 12 13 14 15 16 17 18 19 20 21 22 23 24 25 26 27 28 29 30 31 32
000
FTAK31 PANC 230540
TAFAKN
TAF
PAKN 230540Z 2306/2406 16007KT P6SM FEW050 SCT070
     FM231300 09011KT P6SM VCSH BKN060
     FM231800 09015KT 6SM -RA OVC030
     FM232100 09018G28KT 6SM -RA OVC030 WS020/09040KT=

USA.gov is the U.S. government's official web portal to all federal, state and local government web resources and services.